Time;durP1;ratioP1;P1;durP2;ratioP2;P2;SDS_P1;SDS_P2;PMS_P1;PMS_P2;Temp;Humidity;BMP_temperature;BMP_pressure;BME280_temperature;BME280_humidity;BME280_pressure;Samples;Min_cycle;Max_cycle;Signal;HPM_P1;HPM_P2
2023/01/12 00:00:02;;;;;;;1.0;1.0;;;;;;;8.0;100.0;100790;;;;
2023/01/12 00:01:05;;;;;;;1.0;1.0;;;;;;;8.0;100.0;100790;;;;
2023/01/12 00:02:00;;;;;;;1.0;1.0;;;;;;;8.0;100.0;100790;;;;
2023/01/12 00:03:00;;;;;;;1.0;1.0;;;;;;;8.0;100.0;100790;;;;
2023/01/12 00:04:02;;;;;;;1.2;1.2;;;;;;;8.0;100.0;100790;;;;
2023/01/12 00:05:00;;;;;;;1.2;1.2;;;;;;;8.1;100.0;100790;;;;
2023/01/12 00:06:02;;;;;;;1.2;1.2;;;;;;;8.1;100.0;100790;;;;
2023/01/12 00:07:00;;;;;;;1.2;1.2;;;;;;;8.1;100.0;100800;;;;
2023/01/12 00:08:00;;;;;;;1.2;1.2;;;;;;;8.1;100.0;100800;;;;
2023/01/12 00:09:01;;;;;;;1.2;1.2;;;;;;;8.1;100.0;100790;;;;
2023/01/12 00:10:00;;;;;;;1.2;1.2;;;;;;;8.1;100.0;100790;;;;
2023/01/12 00:11:01;;;;;;;1.2;1.2;;;;;;;8.1;100.0;100780;;;;
2023/01/12 00:12:04;;;;;;;1.2;1.2;;;;;;;8.1;100.0;100780;;;;
2023/01/12 00:13:00;;;;;;;1.2;1.2;;;;;;;8.1;100.0;100780;;;;
2023/01/12 00:14:00;;;;;;;1.2;1.2;;;;;;;8.1;100.0;100780;;;;
2023/01/12 00:15:00;;;;;;;1.2;1.2;;;;;;;8.1;100.0;100780;;;;
2023/01/12 00:17:01;;;;;;;1.2;1.2;;;;;;;8.1;100.0;100780;;;;
2023/01/12 00:18:00;;;;;;;1.2;1.2;;;;;;;8.1;100.0;100780;;;;
2023/01/12 00:19:01;;;;;;;1.2;1.2;;;;;;;8.0;100.0;100780;;;;
2023/01/12 00:20:00;;;;;;;1.2;1.2;;;;;;;8.0;100.0;100780;;;;
2023/01/12 00:21:00;;;;;;;1.2;1.2;;;;;;;8.1;100.0;100770;;;;
2023/01/12 00:22:05;;;;;;;1.2;1.2;;;;;;;8.1;100.0;100770;;;;
2023/01/12 00:23:00;;;;;;;1.2;1.2;;;;;;;8.1;100.0;100770;;;;
2023/01/12 00:24:00;;;;;;;1.3;1.3;;;;;;;8.1;100.0;100770;;;;
2023/01/12 00:25:00;;;;;;;1.3;1.3;;;;;;;8.1;100.0;100770;;;;
2023/01/12 00:26:00;;;;;;;1.3;1.3;;;;;;;8.1;100.0;100770;;;;
2023/01/12 00:27:03;;;;;;;1.3;1.3;;;;;;;8.1;100.0;100770;;;;
2023/01/12 00:28:00;;;;;;;1.3;1.3;;;;;;;8.1;100.0;100770;;;;
2023/01/12 00:29:00;;;;;;;1.3;1.3;;;;;;;8.2;100.0;100770;;;;
2023/01/12 00:30:00;;;;;;;1.3;1.3;;;;;;;8.2;100.0;100770;;;;
2023/01/12 00:31:01;;;;;;;1.3;1.3;;;;;;;8.2;100.0;100770;;;;
2023/01/12 00:32:00;;;;;;;1.3;1.3;;;;;;;8.2;100.0;100770;;;;
2023/01/12 00:33:00;;;;;;;1.3;1.3;;;;;;;8.3;100.0;100760;;;;
2023/01/12 00:34:00;;;;;;;1.3;1.3;;;;;;;8.3;100.0;100760;;;;
2023/01/12 00:35:00;;;;;;;1.3;1.3;;;;;;;8.3;100.0;100760;;;;
2023/01/12 00:36:01;;;;;;;1.3;1.3;;;;;;;8.3;100.0;100760;;;;
2023/01/12 00:37:00;;;;;;;1.3;1.3;;;;;;;8.3;100.0;100760;;;;
2023/01/12 00:38:00;;;;;;;1.3;1.3;;;;;;;8.3;100.0;100760;;;;
2023/01/12 00:39:00;;;;;;;1.3;1.3;;;;;;;8.2;100.0;100760;;;;
2023/01/12 00:40:03;;;;;;;1.3;1.3;;;;;;;8.2;100.0;100760;;;;
2023/01/12 00:41:08;;;;;;;1.3;1.3;;;;;;;8.2;100.0;100750;;;;
2023/01/12 00:46:00;;;;;;;1.1;1.1;;;;;;;8.2;100.0;100740;;;;
2023/01/12 00:47:00;;;;;;;1.1;1.1;;;;;;;8.3;100.0;100740;;;;
2023/01/12 00:48:00;;;;;;;1.1;1.1;;;;;;;8.3;100.0;100740;;;;
2023/01/12 00:49:00;;;;;;;1.1;1.1;;;;;;;8.2;100.0;100740;;;;
2023/01/12 00:50:00;;;;;;;1.1;1.1;;;;;;;8.2;100.0;100740;;;;
2023/01/12 00:51:02;;;;;;;1.1;1.1;;;;;;;8.3;100.0;100720;;;;
2023/01/12 00:52:00;;;;;;;1.1;1.1;;;;;;;8.3;100.0;100720;;;;
2023/01/12 00:53:00;;;;;;;1.1;1.1;;;;;;;8.3;100.0;100740;;;;
2023/01/12 00:54:03;;;;;;;1.1;1.1;;;;;;;8.3;100.0;100740;;;;
2023/01/12 00:55:01;;;;;;;1.1;1.1;;;;;;;8.2;100.0;100740;;;;
2023/01/12 00:56:01;;;;;;;1.1;1.1;;;;;;;8.2;100.0;100740;;;;
2023/01/12 00:57:01;;;;;;;1.1;1.1;;;;;;;8.3;100.0;100730;;;;
2023/01/12 00:58:00;;;;;;;1.1;1.1;;;;;;;8.3;100.0;100730;;;;
2023/01/12 00:59:00;;;;;;;1.1;1.1;;;;;;;8.4;100.0;100730;;;;
2023/01/12 01:00:00;;;;;;;1.1;1.1;;;;;;;8.4;100.0;100730;;;;
2023/01/12 01:01:08;;;;;;;1.1;1.1;;;;;;;8.4;100.0;100730;;;;
2023/01/12 01:02:00;;;;;;;1.1;1.1;;;;;;;8.4;100.0;100730;;;;
2023/01/12 01:03:00;;;;;;;1.1;1.1;;;;;;;8.4;100.0;100720;;;;
2023/01/12 01:04:00;;;;;;;1.0;1.0;;;;;;;8.4;100.0;100720;;;;
2023/01/12 01:05:00;;;;;;;1.0;1.0;;;;;;;8.4;100.0;100720;;;;
2023/01/12 01:06:01;;;;;;;1.0;1.0;;;;;;;8.4;100.0;100720;;;;
2023/01/12 01:07:01;;;;;;;1.0;1.0;;;;;;;8.4;100.0;100710;;;;
2023/01/12 01:08:02;;;;;;;1.0;1.0;;;;;;;8.4;100.0;100710;;;;
2023/01/12 01:09:00;;;;;;;1.0;1.0;;;;;;;8.3;100.0;100720;;;;
2023/01/12 01:10:00;;;;;;;1.0;1.0;;;;;;;8.3;100.0;100720;;;;
2023/01/12 01:11:01;;;;;;;1.0;1.0;;;;;;;8.4;100.0;100720;;;;
2023/01/12 01:12:00;;;;;;;1.0;1.0;;;;;;;8.4;100.0;100720;;;;
2023/01/12 01:13:00;;;;;;;1.0;1.0;;;;;;;8.4;100.0;100720;;;;
2023/01/12 01:14:01;;;;;;;1.0;1.0;;;;;;;8.4;100.0;100720;;;;
2023/01/12 01:15:00;;;;;;;1.0;1.0;;;;;;;8.3;100.0;100710;;;;
2023/01/12 01:16:01;;;;;;;1.0;1.0;;;;;;;8.3;100.0;100710;;;;
2023/01/12 01:17:00;;;;;;;1.0;1.0;;;;;;;8.3;100.0;100710;;;;
2023/01/12 01:18:00;;;;;;;1.0;1.0;;;;;;;8.3;100.0;100710;;;;
2023/01/12 01:19:02;;;;;;;1.0;1.0;;;;;;;8.3;100.0;100700;;;;
2023/01/12 01:20:00;;;;;;;1.0;1.0;;;;;;;8.3;100.0;100700;;;;
2023/01/12 01:21:00;;;;;;;1.0;1.0;;;;;;;8.3;100.0;100710;;;;
2023/01/12 01:22:00;;;;;;;1.0;1.0;;;;;;;8.3;100.0;100710;;;;
2023/01/12 01:23:00;;;;;;;1.0;1.0;;;;;;;8.3;100.0;100710;;;;
2023/01/12 01:24:00;;;;;;;1.1;1.1;;;;;;;8.3;100.0;100710;;;;
2023/01/12 01:25:00;;;;;;;1.1;1.1;;;;;;;8.4;100.0;100710;;;;
2023/01/12 01:26:01;;;;;;;1.1;1.1;;;;;;;8.4;100.0;100710;;;;
2023/01/12 01:27:00;;;;;;;1.1;1.1;;;;;;;8.3;100.0;100700;;;;
2023/01/12 01:28:00;;;;;;;1.1;1.1;;;;;;;8.3;100.0;100700;;;;
2023/01/12 01:29:00;;;;;;;1.1;1.1;;;;;;;8.4;100.0;100690;;;;
2023/01/12 01:30:00;;;;;;;1.1;1.1;;;;;;;8.4;100.0;100690;;;;
2023/01/12 01:31:03;;;;;;;1.1;1.1;;;;;;;8.3;100.0;100690;;;;
2023/01/12 01:32:00;;;;;;;1.1;1.1;;;;;;;8.3;100.0;100690;;;;
2023/01/12 01:33:00;;;;;;;1.1;1.1;;;;;;;8.3;100.0;100700;;;;
2023/01/12 01:34:00;;;;;;;1.1;1.1;;;;;;;8.3;100.0;100700;;;;
2023/01/12 01:35:00;;;;;;;1.1;1.1;;;;;;;8.4;100.0;100690;;;;
2023/01/12 01:36:00;;;;;;;1.1;1.1;;;;;;;8.4;100.0;100690;;;;
2023/01/12 01:37:00;;;;;;;1.1;1.1;;;;;;;8.3;100.0;100700;;;;
2023/01/12 01:38:00;;;;;;;1.1;1.1;;;;;;;8.3;100.0;100700;;;;
2023/01/12 01:39:00;;;;;;;1.1;1.1;;;;;;;8.4;100.0;100700;;;;
2023/01/12 01:40:00;;;;;;;1.1;1.1;;;;;;;8.4;100.0;100700;;;;
2023/01/12 01:41:00;;;;;;;1.1;1.1;;;;;;;8.4;100.0;100690;;;;
2023/01/12 01:42:00;;;;;;;1.1;1.1;;;;;;;8.4;100.0;100690;;;;
2023/01/12 01:43:01;;;;;;;1.1;1.1;;;;;;;8.3;100.0;100680;;;;
2023/01/12 01:44:02;;;;;;;1.1;1.1;;;;;;;8.3;100.0;100680;;;;
2023/01/12 01:45:01;;;;;;;1.1;1.1;;;;;;;8.4;100.0;100680;;;;
2023/01/12 01:46:02;;;;;;;1.1;1.1;;;;;;;8.4;100.0;100680;;;;
2023/01/12 01:47:05;;;;;;;1.1;1.1;;;;;;;8.4;100.0;100680;;;;
2023/01/12 01:48:01;;;;;;;1.1;1.1;;;;;;;8.4;100.0;100680;;;;
2023/01/12 01:49:06;;;;;;;1.1;1.1;;;;;;;8.3;100.0;100670;;;;
2023/01/12 01:50:02;;;;;;;1.1;1.1;;;;;;;8.3;100.0;100670;;;;
2023/01/12 01:51:03;;;;;;;1.1;1.1;;;;;;;8.4;100.0;100670;;;;
2023/01/12 01:52:10;;;;;;;1.1;1.1;;;;;;;8.4;100.0;100670;;;;
2023/01/12 01:53:03;;;;;;;1.1;1.1;;;;;;;8.4;100.0;100670;;;;
2023/01/12 01:54:01;;;;;;;1.1;1.1;;;;;;;8.4;100.0;100670;;;;
2023/01/12 01:55:01;;;;;;;1.1;1.1;;;;;;;8.3;100.0;100680;;;;
2023/01/12 01:56:04;;;;;;;1.1;1.1;;;;;;;8.3;100.0;100680;;;;
2023/01/12 01:57:00;;;;;;;1.1;1.1;;;;;;;8.3;100.0;100680;;;;
2023/01/12 01:58:03;;;;;;;1.1;1.1;;;;;;;8.3;100.0;100680;;;;
2023/01/12 01:59:04;;;;;;;1.1;1.1;;;;;;;8.2;100.0;100670;;;;
2023/01/12 02:00:02;;;;;;;1.1;1.1;;;;;;;8.2;100.0;100670;;;;
2023/01/12 02:01:00;;;;;;;1.1;1.1;;;;;;;8.3;100.0;100660;;;;
2023/01/12 02:02:01;;;;;;;1.1;1.1;;;;;;;8.3;100.0;100660;;;;
2023/01/12 02:03:01;;;;;;;1.1;1.1;;;;;;;8.2;100.0;100660;;;;
2023/01/12 02:04:01;;;;;;;1.2;1.2;;;;;;;8.2;100.0;100660;;;;
2023/01/12 02:05:00;;;;;;;1.2;1.2;;;;;;;8.2;100.0;100660;;;;
2023/01/12 02:06:00;;;;;;;1.2;1.2;;;;;;;8.2;100.0;100660;;;;
2023/01/12 02:07:01;;;;;;;1.2;1.2;;;;;;;8.2;100.0;100660;;;;
2023/01/12 02:08:06;;;;;;;1.2;1.2;;;;;;;8.2;100.0;100660;;;;
2023/01/12 02:09:05;;;;;;;1.2;1.2;;;;;;;8.2;100.0;100660;;;;
2023/01/12 02:10:01;;;;;;;1.2;1.2;;;;;;;8.2;100.0;100660;;;;
2023/01/12 02:11:01;;;;;;;1.2;1.2;;;;;;;8.3;100.0;100650;;;;
2023/01/12 02:17:03;;;;;;;1.2;1.2;;;;;;;8.3;100.0;100640;;;;
2023/01/12 02:18:10;;;;;;;1.2;1.2;;;;;;;8.3;100.0;100640;;;;
2023/01/12 02:19:07;;;;;;;1.2;1.2;;;;;;;8.2;100.0;100640;;;;
2023/01/12 02:20:00;;;;;;;1.2;1.2;;;;;;;8.2;100.0;100640;;;;
2023/01/12 02:21:10;;;;;;;1.2;1.2;;;;;;;8.2;100.0;100630;;;;
2023/01/12 02:22:01;;;;;;;1.2;1.2;;;;;;;8.2;100.0;100630;;;;
2023/01/12 02:23:10;;;;;;;1.2;1.2;;;;;;;8.3;100.0;100640;;;;
2023/01/12 02:24:09;;;;;;;1.1;1.1;;;;;;;8.3;100.0;100640;;;;
2023/01/12 02:25:07;;;;;;;1.1;1.1;;;;;;;8.3;100.0;100630;;;;
2023/01/12 02:26:10;;;;;;;1.1;1.1;;;;;;;8.3;100.0;100630;;;;
2023/01/12 02:27:10;;;;;;;1.1;1.1;;;;;;;8.3;100.0;100630;;;;
2023/01/12 02:28:10;;;;;;;1.1;1.1;;;;;;;8.3;100.0;100630;;;;
2023/01/12 02:29:10;;;;;;;1.1;1.1;;;;;;;8.3;100.0;100620;;;;
2023/01/12 02:30:00;;;;;;;1.1;1.1;;;;;;;8.3;100.0;100620;;;;
2023/01/12 02:31:01;;;;;;;1.1;1.1;;;;;;;8.2;100.0;100630;;;;
2023/01/12 02:32:00;;;;;;;1.1;1.1;;;;;;;8.2;100.0;100630;;;;
2023/01/12 02:33:10;;;;;;;1.1;1.1;;;;;;;8.2;100.0;100620;;;;
2023/01/12 02:34:03;;;;;;;1.1;1.1;;;;;;;8.2;100.0;100620;;;;
2023/01/12 02:35:10;;;;;;;1.1;1.1;;;;;;;8.3;100.0;100620;;;;
2023/01/12 02:36:07;;;;;;;1.1;1.1;;;;;;;8.3;100.0;100620;;;;
2023/01/12 02:37:10;;;;;;;1.1;1.1;;;;;;;8.2;100.0;100620;;;;
2023/01/12 02:38:00;;;;;;;1.1;1.1;;;;;;;8.2;100.0;100620;;;;
2023/01/12 02:39:06;;;;;;;1.1;1.1;;;;;;;8.2;100.0;100620;;;;
2023/01/12 02:40:07;;;;;;;1.1;1.1;;;;;;;8.2;100.0;100620;;;;
2023/01/12 02:41:10;;;;;;;1.1;1.1;;;;;;;8.2;100.0;100610;;;;
2023/01/12 02:43:00;;;;;;;1.1;1.1;;;;;;;8.1;100.0;100610;;;;
2023/01/12 02:44:01;;;;;;;1.2;1.2;;;;;;;8.1;100.0;100610;;;;
2023/01/12 02:45:00;;;;;;;1.2;1.2;;;;;;;8.2;100.0;100610;;;;
2023/01/12 02:46:00;;;;;;;1.2;1.2;;;;;;;8.2;100.0;100610;;;;
2023/01/12 02:47:04;;;;;;;1.2;1.2;;;;;;;8.2;100.0;100610;;;;
2023/01/12 02:48:01;;;;;;;1.2;1.2;;;;;;;8.2;100.0;100610;;;;
2023/01/12 02:49:03;;;;;;;1.2;1.2;;;;;;;8.2;100.0;100610;;;;
2023/01/12 02:50:02;;;;;;;1.2;1.2;;;;;;;8.2;100.0;100610;;;;
2023/01/12 02:51:10;;;;;;;1.2;1.2;;;;;;;8.2;100.0;100590;;;;
2023/01/12 02:52:03;;;;;;;1.2;1.2;;;;;;;8.2;100.0;100590;;;;
2023/01/12 02:53:03;;;;;;;1.2;1.2;;;;;;;8.2;100.0;100590;;;;
2023/01/12 02:54:03;;;;;;;1.2;1.2;;;;;;;8.2;100.0;100590;;;;
2023/01/12 02:55:02;;;;;;;1.2;1.2;;;;;;;8.2;100.0;100580;;;;
2023/01/12 02:56:02;;;;;;;1.2;1.2;;;;;;;8.2;100.0;100580;;;;
2023/01/12 02:57:02;;;;;;;1.2;1.2;;;;;;;8.2;100.0;100590;;;;
2023/01/12 02:58:03;;;;;;;1.2;1.2;;;;;;;8.2;100.0;100590;;;;
2023/01/12 02:59:05;;;;;;;1.2;1.2;;;;;;;8.3;100.0;100590;;;;
2023/01/12 03:00:02;;;;;;;1.2;1.2;;;;;;;8.3;100.0;100590;;;;
2023/01/12 03:01:02;;;;;;;1.2;1.2;;;;;;;8.2;100.0;100580;;;;
2023/01/12 03:02:03;;;;;;;1.2;1.2;;;;;;;8.2;100.0;100580;;;;
2023/01/12 03:03:00;;;;;;;1.2;1.2;;;;;;;8.3;100.0;100570;;;;
2023/01/12 03:04:02;;;;;;;1.1;1.1;;;;;;;8.3;100.0;100570;;;;
2023/01/12 03:05:00;;;;;;;1.1;1.1;;;;;;;8.2;100.0;100570;;;;
2023/01/12 03:06:00;;;;;;;1.1;1.1;;;;;;;8.2;100.0;100570;;;;
2023/01/12 03:07:00;;;;;;;1.1;1.1;;;;;;;8.1;100.0;100570;;;;
2023/01/12 03:08:03;;;;;;;1.1;1.1;;;;;;;8.1;100.0;100570;;;;
2023/01/12 03:09:00;;;;;;;1.1;1.1;;;;;;;8.2;100.0;100570;;;;
2023/01/12 03:10:10;;;;;;;1.1;1.1;;;;;;;8.2;100.0;100570;;;;
2023/01/12 03:11:06;;;;;;;1.1;1.1;;;;;;;8.2;100.0;100570;;;;
2023/01/12 03:12:04;;;;;;;1.1;1.1;;;;;;;8.2;100.0;100570;;;;
2023/01/12 03:13:05;;;;;;;1.1;1.1;;;;;;;8.2;100.0;100570;;;;
2023/01/12 03:14:01;;;;;;;1.1;1.1;;;;;;;8.2;100.0;100570;;;;
2023/01/12 03:15:04;;;;;;;1.1;1.1;;;;;;;8.2;100.0;100550;;;;
2023/01/12 03:16:02;;;;;;;1.1;1.1;;;;;;;8.2;100.0;100550;;;;
2023/01/12 03:17:04;;;;;;;1.1;1.1;;;;;;;8.2;100.0;100550;;;;
2023/01/12 03:18:10;;;;;;;1.1;1.1;;;;;;;8.2;100.0;100550;;;;
2023/01/12 03:19:05;;;;;;;1.1;1.1;;;;;;;8.2;100.0;100550;;;;
2023/01/12 03:20:06;;;;;;;1.1;1.1;;;;;;;8.2;100.0;100550;;;;
2023/01/12 03:21:04;;;;;;;1.1;1.1;;;;;;;8.2;100.0;100550;;;;
2023/01/12 03:22:04;;;;;;;1.1;1.1;;;;;;;8.2;100.0;100550;;;;
2023/01/12 03:23:05;;;;;;;1.1;1.1;;;;;;;8.3;100.0;100540;;;;
2023/01/12 03:24:03;;;;;;;1.1;1.1;;;;;;;8.3;100.0;100540;;;;
2023/01/12 03:25:09;;;;;;;1.1;1.1;;;;;;;8.3;100.0;100540;;;;
2023/01/12 03:26:01;;;;;;;1.1;1.1;;;;;;;8.3;100.0;100540;;;;
2023/01/12 03:27:04;;;;;;;1.1;1.1;;;;;;;8.3;100.0;100530;;;;
2023/01/12 03:28:02;;;;;;;1.1;1.1;;;;;;;8.3;100.0;100530;;;;
2023/01/12 03:29:04;;;;;;;1.1;1.1;;;;;;;8.3;100.0;100530;;;;
2023/01/12 03:30:05;;;;;;;1.1;1.1;;;;;;;8.3;100.0;100530;;;;
2023/01/12 03:31:07;;;;;;;1.1;1.1;;;;;;;8.2;100.0;100530;;;;
2023/01/12 03:32:00;;;;;;;1.1;1.1;;;;;;;8.2;100.0;100530;;;;
2023/01/12 03:33:01;;;;;;;1.1;1.1;;;;;;;8.3;100.0;100520;;;;
2023/01/12 03:34:00;;;;;;;1.1;1.1;;;;;;;8.3;100.0;100520;;;;
2023/01/12 03:35:01;;;;;;;1.1;1.1;;;;;;;8.2;100.0;100520;;;;
2023/01/12 03:36:10;;;;;;;1.1;1.1;;;;;;;8.2;100.0;100520;;;;
2023/01/12 03:37:03;;;;;;;1.1;1.1;;;;;;;8.3;100.0;100500;;;;
2023/01/12 03:38:10;;;;;;;1.1;1.1;;;;;;;8.3;100.0;100500;;;;
2023/01/12 03:39:10;;;;;;;1.1;1.1;;;;;;;8.3;100.0;100510;;;;
2023/01/12 03:40:05;;;;;;;1.1;1.1;;;;;;;8.3;100.0;100510;;;;
2023/01/12 03:41:05;;;;;;;1.1;1.1;;;;;;;8.3;100.0;100520;;;;
2023/01/12 03:42:05;;;;;;;1.1;1.1;;;;;;;8.3;100.0;100520;;;;
2023/01/12 03:43:05;;;;;;;1.1;1.1;;;;;;;8.2;100.0;100510;;;;
2023/01/12 03:44:03;;;;;;;1.1;1.1;;;;;;;8.2;100.0;100510;;;;
2023/01/12 03:45:08;;;;;;;1.1;1.1;;;;;;;8.2;100.0;100500;;;;
2023/01/12 03:46:06;;;;;;;1.1;1.1;;;;;;;8.2;100.0;100500;;;;
2023/01/12 03:47:04;;;;;;;1.1;1.1;;;;;;;8.2;100.0;100510;;;;
2023/01/12 03:48:08;;;;;;;1.1;1.1;;;;;;;8.2;100.0;100510;;;;
2023/01/12 03:49:05;;;;;;;1.1;1.1;;;;;;;8.2;100.0;100500;;;;
2023/01/12 03:50:05;;;;;;;1.1;1.1;;;;;;;8.2;100.0;100500;;;;
2023/01/12 03:51:05;;;;;;;1.1;1.1;;;;;;;8.3;100.0;100490;;;;
2023/01/12 03:52:01;;;;;;;1.1;1.1;;;;;;;8.3;100.0;100490;;;;
2023/01/12 03:53:01;;;;;;;1.1;1.1;;;;;;;8.3;100.0;100500;;;;
2023/01/12 03:54:01;;;;;;;1.1;1.1;;;;;;;8.3;100.0;100500;;;;
2023/01/12 03:55:02;;;;;;;1.1;1.1;;;;;;;8.3;100.0;100490;;;;
2023/01/12 03:56:03;;;;;;;1.1;1.1;;;;;;;8.3;100.0;100490;;;;
2023/01/12 03:57:01;;;;;;;1.1;1.1;;;;;;;8.2;100.0;100490;;;;
2023/01/12 03:58:01;;;;;;;1.1;1.1;;;;;;;8.2;100.0;100490;;;;
2023/01/12 03:59:01;;;;;;;1.1;1.1;;;;;;;8.2;100.0;100460;;;;
2023/01/12 04:00:01;;;;;;;1.1;1.1;;;;;;;8.2;100.0;100460;;;;
2023/01/12 04:01:01;;;;;;;1.1;1.1;;;;;;;8.2;100.0;100460;;;;
2023/01/12 04:02:01;;;;;;;1.1;1.1;;;;;;;8.2;100.0;100460;;;;
2023/01/12 04:03:01;;;;;;;1.1;1.1;;;;;;;8.2;100.0;100450;;;;
2023/01/12 04:04:00;;;;;;;1.1;1.1;;;;;;;8.2;100.0;100450;;;;
2023/01/12 04:05:00;;;;;;;1.1;1.1;;;;;;;8.2;100.0;100440;;;;
2023/01/12 04:06:00;;;;;;;1.1;1.1;;;;;;;8.2;100.0;100440;;;;
2023/01/12 04:07:02;;;;;;;1.1;1.1;;;;;;;8.2;100.0;100440;;;;
2023/01/12 04:08:00;;;;;;;1.1;1.1;;;;;;;8.2;100.0;100440;;;;
2023/01/12 04:09:01;;;;;;;1.1;1.1;;;;;;;8.2;100.0;100420;;;;
2023/01/12 04:10:00;;;;;;;1.1;1.1;;;;;;;8.2;100.0;100420;;;;
2023/01/12 04:12:08;;;;;;;1.1;1.1;;;;;;;8.2;100.0;100430;;;;
2023/01/12 04:13:00;;;;;;;1.1;1.1;;;;;;;8.2;100.0;100420;;;;
2023/01/12 04:14:00;;;;;;;1.1;1.1;;;;;;;8.2;100.0;100420;;;;
2023/01/12 04:15:00;;;;;;;1.1;1.1;;;;;;;8.2;100.0;100420;;;;
2023/01/12 04:16:00;;;;;;;1.1;1.1;;;;;;;8.2;100.0;100420;;;;
2023/01/12 04:17:00;;;;;;;1.1;1.1;;;;;;;8.1;100.0;100420;;;;
2023/01/12 04:18:00;;;;;;;1.1;1.1;;;;;;;8.1;100.0;100420;;;;
2023/01/12 04:19:00;;;;;;;1.1;1.1;;;;;;;8.2;100.0;100410;;;;
2023/01/12 04:20:01;;;;;;;1.1;1.1;;;;;;;8.2;100.0;100410;;;;
2023/01/12 04:21:00;;;;;;;1.1;1.1;;;;;;;8.2;100.0;100400;;;;
2023/01/12 04:23:00;;;;;;;1.1;1.1;;;;;;;8.1;100.0;100390;;;;
2023/01/12 04:24:00;;;;;;;1.1;1.1;;;;;;;8.1;100.0;100390;;;;
2023/01/12 04:25:00;;;;;;;1.1;1.1;;;;;;;8.2;100.0;100390;;;;
2023/01/12 04:26:01;;;;;;;1.1;1.1;;;;;;;8.2;100.0;100390;;;;
2023/01/12 04:27:00;;;;;;;1.1;1.1;;;;;;;8.1;100.0;100370;;;;
2023/01/12 04:28:01;;;;;;;1.1;1.1;;;;;;;8.1;100.0;100370;;;;
2023/01/12 04:29:00;;;;;;;1.1;1.1;;;;;;;8.1;100.0;100360;;;;
2023/01/12 04:30:00;;;;;;;1.1;1.1;;;;;;;8.1;100.0;100360;;;;
2023/01/12 04:31:00;;;;;;;1.1;1.1;;;;;;;8.2;100.0;100360;;;;
2023/01/12 04:32:00;;;;;;;1.1;1.1;;;;;;;8.2;100.0;100360;;;;
2023/01/12 04:33:05;;;;;;;1.1;1.1;;;;;;;8.2;100.0;100350;;;;
2023/01/12 04:34:00;;;;;;;1.1;1.1;;;;;;;8.2;100.0;100350;;;;
2023/01/12 04:35:00;;;;;;;1.1;1.1;;;;;;;8.2;100.0;100350;;;;
2023/01/12 04:36:00;;;;;;;1.1;1.1;;;;;;;8.2;100.0;100350;;;;
2023/01/12 04:37:01;;;;;;;1.1;1.1;;;;;;;8.2;100.0;100340;;;;
2023/01/12 04:38:04;;;;;;;1.1;1.1;;;;;;;8.2;100.0;100340;;;;
2023/01/12 04:39:00;;;;;;;1.1;1.1;;;;;;;8.3;100.0;100340;;;;
2023/01/12 04:40:00;;;;;;;1.1;1.1;;;;;;;8.3;100.0;100340;;;;
2023/01/12 04:41:00;;;;;;;1.1;1.1;;;;;;;8.3;100.0;100340;;;;
2023/01/12 04:42:00;;;;;;;1.1;1.1;;;;;;;8.3;100.0;100340;;;;
2023/01/12 04:43:00;;;;;;;0.9;0.9;;;;;;;8.1;100.0;100340;;;;
2023/01/12 04:44:00;;;;;;;0.9;0.9;;;;;;;8.1;100.0;100340;;;;
2023/01/12 04:45:00;;;;;;;0.9;0.9;;;;;;;8.2;100.0;100330;;;;
2023/01/12 04:46:05;;;;;;;0.9;0.9;;;;;;;8.2;100.0;100330;;;;
2023/01/12 04:47:00;;;;;;;0.9;0.9;;;;;;;8.1;100.0;100320;;;;
2023/01/12 04:48:01;;;;;;;0.9;0.9;;;;;;;8.1;100.0;100320;;;;
2023/01/12 04:49:00;;;;;;;0.9;0.9;;;;;;;8.2;100.0;100310;;;;
2023/01/12 04:50:00;;;;;;;0.9;0.9;;;;;;;8.2;100.0;100310;;;;
2023/01/12 04:51:01;;;;;;;0.9;0.9;;;;;;;8.1;100.0;100310;;;;
2023/01/12 04:52:00;;;;;;;0.9;0.9;;;;;;;8.1;100.0;100310;;;;
2023/01/12 04:53:01;;;;;;;0.9;0.9;;;;;;;8.0;100.0;100290;;;;
2023/01/12 04:54:00;;;;;;;0.9;0.9;;;;;;;8.0;100.0;100290;;;;
2023/01/12 04:55:00;;;;;;;0.9;0.9;;;;;;;8.1;100.0;100280;;;;
2023/01/12 04:56:02;;;;;;;0.9;0.9;;;;;;;8.1;100.0;100280;;;;
2023/01/12 04:57:00;;;;;;;0.9;0.9;;;;;;;8.0;100.0;100270;;;;
2023/01/12 04:58:00;;;;;;;0.9;0.9;;;;;;;8.0;100.0;100270;;;;
2023/01/12 04:59:00;;;;;;;0.9;0.9;;;;;;;8.0;100.0;100270;;;;
2023/01/12 05:00:00;;;;;;;0.9;0.9;;;;;;;8.0;100.0;100270;;;;
2023/01/12 05:01:09;;;;;;;0.9;0.9;;;;;;;8.0;100.0;100260;;;;
2023/01/12 05:02:00;;;;;;;0.9;0.9;;;;;;;8.0;100.0;100260;;;;
2023/01/12 05:04:00;;;;;;;0.9;0.9;;;;;;;8.0;100.0;100280;;;;
2023/01/12 05:05:00;;;;;;;0.9;0.9;;;;;;;8.0;100.0;100290;;;;
2023/01/12 05:06:01;;;;;;;0.9;0.9;;;;;;;8.0;100.0;100290;;;;
2023/01/12 05:07:00;;;;;;;0.9;0.9;;;;;;;8.0;100.0;100290;;;;
2023/01/12 05:11:00;;;;;;;0.9;0.9;;;;;;;8.1;100.0;100280;;;;
2023/01/12 05:12:00;;;;;;;0.9;0.9;;;;;;;8.1;100.0;100280;;;;
2023/01/12 05:13:00;;;;;;;0.9;0.9;;;;;;;8.1;100.0;100280;;;;
2023/01/12 05:14:01;;;;;;;0.9;0.9;;;;;;;8.1;100.0;100280;;;;
2023/01/12 05:15:02;;;;;;;0.9;0.9;;;;;;;8.2;100.0;100290;;;;
2023/01/12 05:16:10;;;;;;;0.9;0.9;;;;;;;8.2;100.0;100290;;;;
2023/01/12 05:17:00;;;;;;;0.9;0.9;;;;;;;8.1;100.0;100300;;;;
2023/01/12 05:18:00;;;;;;;0.9;0.9;;;;;;;8.1;100.0;100300;;;;
2023/01/12 05:19:00;;;;;;;0.9;0.9;;;;;;;8.1;100.0;100300;;;;
2023/01/12 05:20:01;;;;;;;0.9;0.9;;;;;;;8.1;100.0;100300;;;;
2023/01/12 05:21:00;;;;;;;0.9;0.9;;;;;;;8.1;100.0;100280;;;;
2023/01/12 05:22:00;;;;;;;0.9;0.9;;;;;;;8.1;100.0;100280;;;;
2023/01/12 05:31:02;;;;;;;1.2;1.2;;;;;;;8.1;100.0;100260;;;;
2023/01/12 05:32:00;;;;;;;1.2;1.2;;;;;;;8.1;100.0;100260;;;;
2023/01/12 05:33:00;;;;;;;1.2;1.2;;;;;;;8.1;100.0;100260;;;;
2023/01/12 05:34:00;;;;;;;1.2;1.2;;;;;;;8.1;100.0;100260;;;;
2023/01/12 05:44:00;;;;;;;1.0;1.0;;;;;;;8.1;100.0;100260;;;;
2023/01/12 05:45:00;;;;;;;1.0;1.0;;;;;;;8.1;100.0;100250;;;;
2023/01/12 05:46:02;;;;;;;1.0;1.0;;;;;;;8.1;100.0;100250;;;;
2023/01/12 05:47:00;;;;;;;1.0;1.0;;;;;;;8.2;100.0;100250;;;;
2023/01/12 05:48:01;;;;;;;1.0;1.0;;;;;;;8.2;100.0;100250;;;;
2023/01/12 05:49:00;;;;;;;1.0;1.0;;;;;;;8.1;100.0;100240;;;;
2023/01/12 05:50:00;;;;;;;1.0;1.0;;;;;;;8.1;100.0;100240;;;;
2023/01/12 05:51:02;;;;;;;1.0;1.0;;;;;;;8.1;100.0;100230;;;;
2023/01/12 05:52:00;;;;;;;1.0;1.0;;;;;;;8.1;100.0;100230;;;;
2023/01/12 05:53:00;;;;;;;1.0;1.0;;;;;;;8.1;100.0;100240;;;;
2023/01/12 05:54:01;;;;;;;1.0;1.0;;;;;;;8.1;100.0;100240;;;;
2023/01/12 05:55:00;;;;;;;1.0;1.0;;;;;;;8.1;100.0;100260;;;;
2023/01/12 05:56:05;;;;;;;1.0;1.0;;;;;;;8.1;100.0;100260;;;;
2023/01/12 05:57:00;;;;;;;1.0;1.0;;;;;;;8.1;100.0;100260;;;;
2023/01/12 05:58:00;;;;;;;1.0;1.0;;;;;;;8.1;100.0;100260;;;;
2023/01/12 05:59:01;;;;;;;1.0;1.0;;;;;;;8.1;100.0;100240;;;;
2023/01/12 06:00:00;;;;;;;1.0;1.0;;;;;;;8.1;100.0;100240;;;;
2023/01/12 06:01:04;;;;;;;1.0;1.0;;;;;;;8.1;100.0;100260;;;;
2023/01/12 06:02:00;;;;;;;1.0;1.0;;;;;;;8.1;100.0;100260;;;;
2023/01/12 06:03:01;;;;;;;1.0;1.0;;;;;;;8.1;100.0;100240;;;;
2023/01/12 06:04:00;;;;;;;1.0;1.0;;;;;;;8.1;100.0;100240;;;;
2023/01/12 06:05:00;;;;;;;1.0;1.0;;;;;;;8.1;100.0;100230;;;;
2023/01/12 06:06:00;;;;;;;1.0;1.0;;;;;;;8.1;100.0;100230;;;;
2023/01/12 06:07:00;;;;;;;1.0;1.0;;;;;;;8.1;100.0;100250;;;;
2023/01/12 06:08:01;;;;;;;1.0;1.0;;;;;;;8.1;100.0;100250;;;;
2023/01/12 06:09:01;;;;;;;1.0;1.0;;;;;;;8.1;100.0;100240;;;;
2023/01/12 06:10:00;;;;;;;1.0;1.0;;;;;;;8.1;100.0;100240;;;;
2023/01/12 06:11:01;;;;;;;1.0;1.0;;;;;;;8.1;100.0;100250;;;;
2023/01/12 06:14:00;;;;;;;1.0;1.0;;;;;;;8.1;100.0;100250;;;;
2023/01/12 06:15:00;;;;;;;1.0;1.0;;;;;;;8.1;100.0;100260;;;;
2023/01/12 06:16:03;;;;;;;1.0;1.0;;;;;;;8.1;100.0;100260;;;;
2023/01/12 06:17:00;;;;;;;1.0;1.0;;;;;;;8.1;100.0;100250;;;;
2023/01/12 06:18:00;;;;;;;1.0;1.0;;;;;;;8.1;100.0;100250;;;;
2023/01/12 06:19:00;;;;;;;1.0;1.0;;;;;;;8.2;100.0;100250;;;;
2023/01/12 06:20:00;;;;;;;1.0;1.0;;;;;;;8.2;100.0;100250;;;;
2023/01/12 06:21:01;;;;;;;1.0;1.0;;;;;;;8.2;100.0;100270;;;;
2023/01/12 06:22:00;;;;;;;1.0;1.0;;;;;;;8.2;100.0;100270;;;;
2023/01/12 06:23:01;;;;;;;1.0;1.0;;;;;;;8.3;100.0;100240;;;;
2023/01/12 06:24:00;;;;;;;1.0;1.0;;;;;;;8.3;100.0;100240;;;;
2023/01/12 06:25:00;;;;;;;1.0;1.0;;;;;;;8.2;100.0;100240;;;;
2023/01/12 06:26:01;;;;;;;1.0;1.0;;;;;;;8.2;100.0;100240;;;;
2023/01/12 06:27:00;;;;;;;1.0;1.0;;;;;;;8.2;100.0;100250;;;;
2023/01/12 06:28:00;;;;;;;1.0;1.0;;;;;;;8.2;100.0;100250;;;;
2023/01/12 06:29:02;;;;;;;1.0;1.0;;;;;;;8.3;100.0;100250;;;;
2023/01/12 06:30:00;;;;;;;1.0;1.0;;;;;;;8.3;100.0;100250;;;;
2023/01/12 06:31:01;;;;;;;1.0;1.0;;;;;;;8.2;100.0;100250;;;;
2023/01/12 06:32:00;;;;;;;1.0;1.0;;;;;;;8.2;100.0;100250;;;;
2023/01/12 06:33:01;;;;;;;1.0;1.0;;;;;;;8.2;100.0;100240;;;;
2023/01/12 06:34:00;;;;;;;1.0;1.0;;;;;;;8.2;100.0;100240;;;;
2023/01/12 06:35:10;;;;;;;1.0;1.0;;;;;;;8.2;100.0;100250;;;;
2023/01/12 06:36:00;;;;;;;1.0;1.0;;;;;;;8.2;100.0;100250;;;;
2023/01/12 06:37:01;;;;;;;1.0;1.0;;;;;;;8.1;100.0;100240;;;;
2023/01/12 06:38:00;;;;;;;1.0;1.0;;;;;;;8.1;100.0;100240;;;;
2023/01/12 06:39:01;;;;;;;1.0;1.0;;;;;;;8.1;100.0;100230;;;;
2023/01/12 06:40:00;;;;;;;1.0;1.0;;;;;;;8.1;100.0;100230;;;;
2023/01/12 06:41:03;;;;;;;1.0;1.0;;;;;;;8.2;100.0;100240;;;;
2023/01/12 06:43:00;;;;;;;1.0;1.0;;;;;;;8.2;100.0;100240;;;;
2023/01/12 06:44:00;;;;;;;1.0;1.0;;;;;;;8.2;100.0;100240;;;;
2023/01/12 06:45:02;;;;;;;1.0;1.0;;;;;;;8.3;100.0;100250;;;;
2023/01/12 06:46:00;;;;;;;1.0;1.0;;;;;;;8.3;100.0;100250;;;;
2023/01/12 06:47:01;;;;;;;1.0;1.0;;;;;;;8.3;100.0;100230;;;;
2023/01/12 06:48:00;;;;;;;1.0;1.0;;;;;;;8.3;100.0;100230;;;;
2023/01/12 06:49:00;;;;;;;1.0;1.0;;;;;;;8.3;100.0;100240;;;;
2023/01/12 06:50:00;;;;;;;1.0;1.0;;;;;;;8.3;100.0;100240;;;;
2023/01/12 06:51:01;;;;;;;1.0;1.0;;;;;;;8.2;100.0;100250;;;;
2023/01/12 06:52:00;;;;;;;1.0;1.0;;;;;;;8.2;100.0;100250;;;;
2023/01/12 06:53:01;;;;;;;1.0;1.0;;;;;;;8.3;100.0;100240;;;;
2023/01/12 06:54:00;;;;;;;1.0;1.0;;;;;;;8.3;100.0;100240;;;;
2023/01/12 06:55:00;;;;;;;1.0;1.0;;;;;;;8.4;100.0;100230;;;;
2023/01/12 06:56:00;;;;;;;1.0;1.0;;;;;;;8.4;100.0;100230;;;;
2023/01/12 06:57:00;;;;;;;1.0;1.0;;;;;;;8.4;100.0;100240;;;;
2023/01/12 06:58:02;;;;;;;1.0;1.0;;;;;;;8.4;100.0;100240;;;;
2023/01/12 06:59:00;;;;;;;1.0;1.0;;;;;;;8.4;100.0;100240;;;;
2023/01/12 07:00:00;;;;;;;1.0;1.0;;;;;;;8.4;100.0;100240;;;;
2023/01/12 07:01:01;;;;;;;1.0;1.0;;;;;;;8.4;100.0;100240;;;;
2023/01/12 07:02:01;;;;;;;1.0;1.0;;;;;;;8.4;100.0;100240;;;;
2023/01/12 07:03:00;;;;;;;1.0;1.0;;;;;;;8.4;100.0;100240;;;;
2023/01/12 07:04:00;;;;;;;1.0;1.0;;;;;;;8.4;100.0;100240;;;;
2023/01/12 07:05:01;;;;;;;1.0;1.0;;;;;;;8.3;100.0;100240;;;;
2023/01/12 07:06:00;;;;;;;1.0;1.0;;;;;;;8.3;100.0;100240;;;;